createdAt,value
2022-12-23T00:00:52.555Z,3.40
2022-12-23T00:02:24.280Z,4.60
2022-12-23T00:03:59.613Z,4.30
2022-12-23T00:05:37.356Z,3.77
2022-12-23T00:07:09.499Z,3.60
2022-12-23T00:08:42.332Z,4.37
2022-12-23T00:10:14.014Z,3.00
2022-12-23T00:12:18.100Z,3.70
2022-12-23T00:14:08.250Z,3.60
2022-12-23T00:15:39.875Z,4.00
2022-12-23T00:17:22.149Z,3.57
2022-12-23T00:18:54.987Z,4.10
2022-12-23T00:20:26.644Z,3.90
2022-12-23T00:21:58.247Z,4.00
2022-12-23T00:23:32.532Z,4.03
2022-12-23T00:25:04.400Z,3.10
2022-12-23T00:26:36.229Z,3.93
2022-12-23T00:28:16.489Z,4.07
2022-12-23T00:29:48.108Z,4.43
2022-12-23T00:31:20.941Z,4.00
2022-12-23T00:32:52.675Z,4.27
2022-12-23T00:34:24.335Z,3.97
2022-12-23T00:35:56.416Z,3.87
2022-12-23T00:37:31.116Z,3.93
2022-12-23T00:39:21.548Z,4.50
2022-12-23T00:41:11.935Z,3.90
2022-12-23T00:42:55.766Z,4.33
2022-12-23T00:44:27.411Z,3.73
2022-12-23T00:45:59.194Z,4.10
2022-12-23T00:47:49.445Z,3.87
2022-12-23T00:49:39.970Z,3.67
2022-12-23T00:51:11.623Z,4.37
2022-12-23T00:52:43.298Z,4.37
2022-12-23T00:54:15.493Z,3.93
2022-12-23T00:55:47.813Z,4.00
2022-12-23T00:57:19.478Z,3.83
2022-12-23T00:58:51.177Z,4.20
2022-12-23T01:00:43.257Z,3.80
2022-12-23T01:02:33.802Z,4.13
2022-12-23T01:04:24.361Z,4.37
2022-12-23T01:06:01.311Z,4.30
2022-12-23T01:07:33.039Z,4.90
2022-12-23T01:09:04.676Z,4.30
2022-12-23T01:10:37.614Z,4.13
2022-12-23T01:12:09.468Z,3.97
2022-12-23T01:13:41.135Z,4.60
2022-12-23T01:15:12.797Z,4.30
2022-12-23T01:16:45.135Z,4.40
2022-12-23T01:18:16.799Z,4.50
2022-12-23T01:19:48.546Z,4.20
2022-12-23T01:21:20.228Z,4.60
2022-12-23T01:22:51.869Z,4.50
2022-12-23T01:24:23.645Z,4.27
2022-12-23T01:25:59.772Z,4.97
2022-12-23T01:27:31.400Z,4.60
2022-12-23T01:29:03.453Z,4.67
2022-12-23T01:30:35.084Z,5.50
2022-12-23T01:32:06.915Z,4.60
2022-12-23T01:33:38.795Z,4.77
2022-12-23T01:35:10.440Z,5.23
2022-12-23T01:36:42.057Z,4.77
2022-12-23T01:38:13.853Z,4.70
2022-12-23T01:39:45.465Z,3.97
2022-12-23T01:41:44.969Z,5.17
2022-12-23T01:43:18.844Z,5.40
2022-12-23T01:44:56.246Z,4.83
2022-12-23T01:46:27.954Z,5.10
2022-12-23T01:48:10.390Z,4.50
2022-12-23T01:49:42.789Z,4.60
2022-12-23T01:51:27.297Z,4.97
2022-12-23T01:53:12.668Z,5.40
2022-12-23T01:54:45.129Z,5.07
2022-12-23T01:56:38.285Z,5.20
2022-12-23T01:58:19.322Z,5.23
2022-12-23T02:00:09.914Z,5.73
2022-12-23T02:02:11.498Z,5.07
2022-12-23T02:03:45.286Z,5.03
2022-12-23T02:05:17.401Z,5.60
2022-12-23T02:07:09.333Z,6.13
2022-12-23T02:08:59.856Z,5.00
2022-12-23T02:10:42.025Z,4.80
2022-12-23T02:12:32.484Z,5.00
2022-12-23T02:14:37.986Z,4.43
2022-12-23T02:16:16.880Z,5.33
2022-12-23T02:18:17.492Z,5.70
2022-12-23T02:20:20.004Z,5.83
2022-12-23T02:22:03.705Z,5.60
2022-12-23T02:23:53.607Z,5.80
2022-12-23T02:25:25.277Z,5.60
2022-12-23T02:27:28.529Z,5.47
2022-12-23T02:29:21.098Z,5.00
2022-12-23T02:31:09.483Z,5.17
2022-12-23T02:32:57.611Z,5.57
2022-12-23T02:34:49.321Z,6.17
2022-12-23T02:36:44.990Z,5.80
2022-12-23T02:38:25.529Z,5.90
2022-12-23T02:40:09.836Z,5.50
2022-12-23T02:41:54.389Z,5.93
2022-12-23T02:43:47.617Z,6.77
2022-12-23T02:45:54.667Z,5.80
2022-12-23T02:47:36.266Z,6.60
2022-12-23T02:49:20.265Z,6.37
2022-12-23T02:50:54.433Z,5.80
2022-12-23T02:52:31.634Z,6.67
2022-12-23T02:54:07.985Z,6.50
2022-12-23T02:55:41.798Z,7.30
2022-12-23T02:57:17.653Z,6.47
2022-12-23T02:59:12.518Z,7.47
2022-12-23T03:00:45.367Z,6.37
2022-12-23T03:02:17.717Z,6.90
2022-12-23T03:03:50.960Z,5.87
2022-12-23T03:05:24.380Z,7.23
2022-12-23T03:07:01.678Z,6.50
2022-12-23T03:08:43.859Z,6.00
2022-12-23T03:11:07.334Z,6.83
2022-12-23T03:13:03.418Z,6.73
2022-12-23T03:14:34.991Z,6.90
2022-12-23T03:16:46.951Z,7.10
2022-12-23T03:18:36.978Z,7.03
2022-12-23T03:20:20.337Z,6.87
2022-12-23T03:22:23.955Z,7.20
2022-12-23T03:24:15.848Z,7.60
2022-12-23T03:25:59.698Z,7.63
2022-12-23T03:27:40.870Z,7.80
2022-12-23T03:29:24.419Z,7.40
2022-12-23T03:30:59.041Z,7.70
2022-12-23T03:32:36.485Z,8.30
2022-12-23T03:34:29.891Z,8.50
2022-12-23T03:36:09.947Z,7.53
2022-12-23T03:37:44.816Z,7.20
2022-12-23T03:39:22.516Z,7.60
2022-12-23T03:40:58.179Z,7.90
2022-12-23T03:42:35.831Z,8.40
2022-12-23T03:44:16.172Z,7.80
2022-12-23T03:46:03.416Z,7.80
2022-12-23T03:47:44.448Z,8.70
2022-12-23T03:49:25.856Z,7.37
2022-12-23T03:51:02.956Z,8.33
2022-12-23T03:52:43.620Z,8.23
2022-12-23T03:54:21.001Z,8.13
2022-12-23T03:55:58.564Z,7.40
2022-12-23T03:57:44.836Z,7.40
2022-12-23T03:59:31.441Z,7.87
2022-12-23T04:01:38.476Z,7.83
2022-12-23T04:03:21.302Z,8.00
2022-12-23T04:05:24.953Z,7.30
2022-12-23T04:07:13.423Z,7.17
2022-12-23T04:08:47.970Z,7.07
2022-12-23T04:10:21.482Z,7.60
2022-12-23T04:11:53.672Z,7.63
2022-12-23T04:13:27.377Z,7.47
2022-12-23T04:14:59.053Z,7.10
2022-12-23T04:16:31.005Z,7.10
2022-12-23T04:18:02.644Z,7.30
2022-12-23T04:19:34.259Z,7.47
2022-12-23T04:21:05.942Z,7.20
2022-12-23T04:22:37.664Z,7.40
2022-12-23T04:24:09.368Z,6.33
2022-12-23T04:25:41.129Z,6.73
2022-12-23T04:27:14.777Z,7.03
2022-12-23T04:28:46.462Z,7.17
2022-12-23T04:30:18.814Z,6.93
2022-12-23T04:31:50.460Z,6.37
2022-12-23T04:33:22.201Z,6.80
2022-12-23T04:34:53.845Z,7.07
2022-12-23T04:36:25.554Z,7.00
2022-12-23T04:37:57.385Z,7.37
2022-12-23T04:39:29.045Z,7.43
2022-12-23T04:41:00.709Z,6.33
2022-12-23T04:42:32.411Z,5.80
2022-12-23T04:44:04.074Z,7.00
2022-12-23T04:45:35.764Z,6.70
2022-12-23T04:47:07.658Z,6.20
2022-12-23T04:48:39.350Z,6.53
2022-12-23T04:50:14.901Z,6.57
2022-12-23T04:51:46.596Z,6.30
2022-12-23T04:53:18.283Z,5.83
2022-12-23T04:54:49.982Z,6.00
2022-12-23T04:56:21.598Z,5.97
2022-12-23T04:57:53.307Z,6.17
2022-12-23T04:59:25.042Z,5.70
2022-12-23T05:01:08.218Z,6.73
2022-12-23T05:02:40.001Z,6.53
2022-12-23T05:04:11.754Z,6.50
2022-12-23T05:05:44.380Z,6.27
2022-12-23T05:07:16.229Z,6.67
2022-12-23T05:08:47.863Z,6.30
2022-12-23T05:10:19.553Z,5.87
2022-12-23T05:11:51.232Z,5.77
2022-12-23T05:13:22.959Z,6.57
2022-12-23T05:14:54.861Z,6.60
2022-12-23T05:16:26.537Z,6.47
2022-12-23T05:17:58.219Z,6.50
2022-12-23T05:19:29.883Z,6.97
2022-12-23T05:21:01.591Z,6.97
2022-12-23T05:22:33.241Z,6.87
2022-12-23T05:24:05.019Z,6.73
2022-12-23T05:25:38.130Z,6.80
2022-12-23T05:27:09.724Z,7.27
2022-12-23T05:28:42.837Z,6.87
2022-12-23T05:30:14.551Z,8.10
2022-12-23T05:31:46.176Z,7.37
2022-12-23T05:33:17.942Z,7.47
2022-12-23T05:34:49.579Z,8.00
2022-12-23T05:36:21.194Z,7.87
2022-12-23T05:37:53.225Z,7.27
2022-12-23T05:39:24.907Z,7.10
2022-12-23T05:40:56.575Z,8.30
2022-12-23T05:42:28.267Z,7.57
2022-12-23T05:43:59.915Z,7.83
2022-12-23T05:45:34.701Z,8.07
2022-12-23T05:47:06.363Z,7.63
2022-12-23T05:48:37.979Z,8.03
2022-12-23T05:50:09.886Z,9.07
2022-12-23T05:51:41.529Z,8.07
2022-12-23T05:53:13.187Z,7.87
2022-12-23T05:54:44.888Z,7.50
2022-12-23T05:56:16.523Z,8.23
2022-12-23T05:57:48.215Z,8.60
2022-12-23T05:59:19.938Z,8.43
2022-12-23T06:00:51.615Z,7.27
2022-12-23T06:02:23.631Z,7.70
2022-12-23T06:03:55.818Z,7.83
2022-12-23T06:05:27.644Z,7.70
2022-12-23T06:06:59.255Z,7.87
2022-12-23T06:08:31.066Z,8.53
2022-12-23T06:10:02.960Z,8.20
2022-12-23T06:11:34.576Z,8.47
2022-12-23T06:13:06.212Z,7.83
2022-12-23T06:14:37.870Z,7.90
2022-12-23T06:16:09.563Z,8.87
2022-12-23T06:17:41.613Z,9.70
2022-12-23T06:19:13.234Z,11.00
2022-12-23T06:20:48.499Z,10.57
2022-12-23T06:22:23.487Z,9.87
2022-12-23T06:23:55.133Z,10.40
2022-12-23T06:25:26.935Z,10.30
2022-12-23T06:26:58.596Z,10.90
2022-12-23T06:28:30.490Z,9.90
2022-12-23T06:30:02.182Z,9.43
2022-12-23T06:31:33.941Z,11.00
2022-12-23T06:33:05.658Z,14.23
2022-12-23T06:34:37.464Z,11.60
2022-12-23T06:36:09.616Z,12.13
2022-12-23T06:37:41.379Z,13.40
2022-12-23T06:39:13.391Z,12.47
2022-12-23T06:40:45.106Z,10.90
2022-12-23T06:42:16.821Z,10.90
2022-12-23T06:43:53.895Z,12.53
2022-12-23T06:45:26.263Z,17.53
2022-12-23T06:46:57.948Z,10.70
2022-12-23T06:48:29.835Z,11.93
2022-12-23T06:50:01.550Z,13.70
2022-12-23T06:51:33.660Z,13.10
2022-12-23T06:53:05.451Z,11.90
2022-12-23T06:54:37.168Z,12.27
2022-12-23T06:56:08.887Z,12.80
2022-12-23T06:57:40.564Z,11.30
2022-12-23T06:59:12.287Z,12.33
2022-12-23T07:00:43.977Z,11.27
2022-12-23T07:02:15.870Z,11.40
2022-12-23T07:03:49.646Z,10.80
2022-12-23T07:05:21.447Z,10.33
2022-12-23T07:06:53.136Z,10.40
2022-12-23T07:08:24.790Z,9.60
2022-12-23T07:09:56.452Z,9.30
2022-12-23T07:11:28.106Z,9.00
2022-12-23T07:13:01.780Z,9.50
2022-12-23T07:14:33.409Z,9.57
2022-12-23T07:16:07.164Z,8.77
2022-12-23T07:17:38.961Z,9.07
2022-12-23T07:19:10.665Z,8.73
2022-12-23T07:20:42.374Z,8.20
2022-12-23T07:22:13.998Z,8.37
2022-12-23T07:23:45.779Z,8.23
2022-12-23T07:25:17.388Z,8.20
2022-12-23T07:26:50.861Z,10.53
2022-12-23T07:28:23.826Z,8.80
2022-12-23T07:29:55.488Z,8.47
2022-12-23T07:31:27.213Z,8.40
2022-12-23T07:32:59.253Z,8.60
2022-12-23T07:34:30.982Z,8.13
2022-12-23T07:36:02.645Z,7.90
2022-12-23T07:37:34.302Z,7.90
2022-12-23T07:39:06.204Z,7.90
2022-12-23T07:40:37.911Z,8.90
2022-12-23T07:42:42.686Z,8.20
2022-12-23T07:44:01.161Z,8.30
2022-12-23T07:45:32.856Z,8.73
2022-12-23T07:47:04.652Z,8.10
2022-12-23T07:48:36.624Z,8.00
2022-12-23T07:50:08.840Z,8.70
2022-12-23T07:51:40.470Z,7.50
2022-12-23T07:53:12.177Z,7.80
2022-12-23T07:54:43.965Z,7.33
2022-12-23T07:56:15.778Z,8.30
2022-12-23T07:57:52.321Z,7.90
2022-12-23T07:59:26.944Z,8.57
2022-12-23T08:01:05.136Z,8.20
2022-12-23T08:02:37.222Z,7.70
2022-12-23T08:04:08.874Z,7.80
2022-12-23T08:05:40.538Z,8.87
2022-12-23T08:07:12.145Z,8.20
2022-12-23T08:08:46.029Z,7.40
2022-12-23T08:10:17.834Z,8.53
2022-12-23T08:11:49.482Z,8.60
2022-12-23T08:13:21.397Z,7.80
2022-12-23T08:14:53.020Z,9.03
2022-12-23T08:16:24.753Z,8.10
2022-12-23T08:17:56.714Z,9.10
2022-12-23T08:19:28.318Z,8.83
2022-12-23T08:21:05.918Z,8.30
2022-12-23T08:22:37.954Z,8.43
2022-12-23T08:24:09.577Z,8.90
2022-12-23T08:25:41.240Z,9.07
2022-12-23T08:27:12.917Z,9.10
2022-12-23T08:28:45.796Z,8.33
2022-12-23T08:30:17.489Z,8.20
2022-12-23T08:31:50.343Z,8.47
2022-12-23T08:33:22.140Z,8.63
2022-12-23T08:34:58.076Z,8.80
2022-12-23T08:36:32.347Z,9.00
2022-12-23T08:38:04.027Z,8.13
2022-12-23T08:39:35.730Z,8.13
2022-12-23T08:41:11.799Z,8.20
2022-12-23T08:42:43.495Z,8.00
2022-12-23T08:44:16.787Z,8.40
2022-12-23T08:45:48.535Z,8.77
2022-12-23T08:47:20.221Z,9.57
2022-12-23T08:48:52.872Z,8.47
2022-12-23T08:50:24.575Z,9.27
2022-12-23T08:51:56.624Z,9.87
2022-12-23T08:53:29.064Z,10.60
2022-12-23T08:55:00.692Z,9.30
2022-12-23T08:56:35.483Z,9.30
2022-12-23T08:58:08.194Z,9.60
2022-12-23T08:59:39.858Z,8.77
2022-12-23T09:01:13.696Z,8.70
2022-12-23T09:02:45.526Z,8.93
2022-12-23T09:04:17.491Z,8.90
2022-12-23T09:05:49.115Z,9.07
2022-12-23T09:07:23.836Z,8.20
2022-12-23T09:08:56.001Z,8.10
2022-12-23T09:10:27.656Z,8.57
2022-12-23T09:11:59.355Z,7.70
2022-12-23T09:13:35.268Z,8.03
2022-12-23T09:15:07.502Z,8.57
2022-12-23T09:16:39.624Z,7.90
2022-12-23T09:18:12.121Z,8.40
2022-12-23T09:19:48.619Z,8.33
2022-12-23T09:21:24.383Z,7.80
2022-12-23T09:22:55.996Z,7.63
2022-12-23T09:24:27.799Z,7.90
2022-12-23T09:25:59.583Z,7.93
2022-12-23T09:27:31.305Z,7.67
2022-12-23T09:29:03.113Z,7.43
2022-12-23T09:30:34.745Z,8.07
2022-12-23T09:32:06.370Z,7.80
2022-12-23T09:33:38.359Z,7.10
2022-12-23T09:35:10.150Z,7.13
2022-12-23T09:36:41.831Z,8.10
2022-12-23T09:38:13.726Z,7.03
2022-12-23T09:39:45.397Z,7.00
2022-12-23T09:41:38.930Z,6.27
2022-12-23T09:43:31.576Z,6.70
2022-12-23T09:45:32.992Z,6.60
2022-12-23T09:47:15.547Z,6.27
2022-12-23T09:48:59.656Z,6.37
2022-12-23T09:50:34.523Z,6.60
2022-12-23T09:52:13.527Z,6.73
2022-12-23T09:54:00.707Z,6.33
2022-12-23T09:55:53.608Z,6.13
2022-12-23T09:57:45.617Z,5.90
2022-12-23T09:59:49.451Z,6.00
2022-12-23T10:01:29.767Z,5.50
2022-12-23T10:04:05.168Z,5.73
2022-12-23T10:06:05.524Z,6.80
2022-12-23T10:07:43.664Z,6.03
2022-12-23T10:09:17.359Z,5.60
2022-12-23T10:10:54.049Z,6.17
2022-12-23T10:12:40.022Z,5.90
2022-12-23T10:14:30.636Z,6.10
2022-12-23T10:16:09.547Z,5.77
2022-12-23T10:17:42.613Z,5.80
2022-12-23T10:19:28.028Z,5.60
2022-12-23T10:21:07.512Z,5.70
2022-12-23T10:22:43.045Z,5.93
2022-12-23T10:24:33.370Z,5.67
2022-12-23T10:26:15.100Z,5.23
2022-12-23T10:27:46.733Z,5.60
2022-12-23T10:29:20.265Z,6.47
2022-12-23T10:31:31.104Z,5.63
2022-12-23T10:33:17.372Z,6.10
2022-12-23T10:35:03.390Z,7.00
2022-12-23T10:37:00.800Z,5.07
2022-12-23T10:38:53.649Z,6.33
2022-12-23T10:40:48.108Z,6.50
2022-12-23T10:42:39.179Z,6.07
2022-12-23T10:44:32.580Z,5.70
2022-12-23T10:46:42.003Z,6.03
2022-12-23T10:48:35.637Z,5.77
2022-12-23T10:50:30.473Z,6.20
2022-12-23T10:52:11.272Z,5.70
2022-12-23T10:53:56.257Z,6.40
2022-12-23T10:55:34.038Z,5.87
2022-12-23T10:57:06.940Z,6.47
2022-12-23T10:58:43.392Z,5.80
2022-12-23T11:00:21.796Z,5.70
2022-12-23T11:02:17.470Z,6.03
2022-12-23T11:04:13.045Z,5.33
2022-12-23T11:05:46.916Z,4.97
2022-12-23T11:07:43.846Z,6.20
2022-12-23T11:09:27.927Z,5.67
2022-12-23T11:11:01.273Z,5.63
2022-12-23T11:12:45.558Z,6.37
2022-12-23T11:14:31.435Z,5.33
2022-12-23T11:16:25.521Z,5.20
2022-12-23T11:18:07.579Z,5.40
2022-12-23T11:19:39.271Z,5.00
2022-12-23T11:21:14.604Z,5.17
2022-12-23T11:22:52.066Z,5.50
2022-12-23T11:24:25.471Z,5.07
2022-12-23T11:26:05.216Z,5.53
2022-12-23T11:27:36.916Z,4.90
2022-12-23T11:29:13.717Z,5.03
2022-12-23T11:30:56.854Z,5.20
2022-12-23T11:32:29.403Z,5.40
2022-12-23T11:34:07.077Z,4.80
2022-12-23T11:35:39.413Z,4.50
2022-12-23T11:37:26.164Z,4.80
2022-12-23T11:39:14.142Z,4.60
2022-12-23T11:40:47.828Z,5.40
2022-12-23T11:42:27.223Z,5.50
2022-12-23T11:44:03.247Z,4.90
2022-12-23T11:45:37.094Z,5.23
2022-12-23T11:47:23.527Z,5.00
2022-12-23T11:49:21.044Z,4.80
2022-12-23T11:51:02.165Z,5.30
2022-12-23T11:52:33.973Z,5.10
2022-12-23T11:54:05.823Z,4.70
2022-12-23T11:55:43.812Z,4.60
2022-12-23T11:57:18.941Z,3.93
2022-12-23T11:59:25.401Z,4.60
2022-12-23T12:00:59.809Z,4.63
2022-12-23T12:02:37.436Z,4.33
2022-12-23T12:04:18.367Z,4.70
2022-12-23T12:05:54.559Z,5.00
2022-12-23T12:07:26.800Z,4.50
2022-12-23T12:09:01.205Z,4.40
2022-12-23T12:10:37.272Z,4.17
2022-12-23T12:12:20.928Z,4.60
2022-12-23T12:13:59.749Z,4.63
2022-12-23T12:15:31.902Z,4.60
2022-12-23T12:17:25.387Z,4.53
2022-12-23T12:19:02.532Z,4.70
2022-12-23T12:20:39.201Z,4.70
2022-12-23T12:22:16.331Z,4.43
2022-12-23T12:24:08.143Z,4.87
2022-12-23T12:25:56.753Z,4.60
2022-12-23T12:27:36.863Z,4.07
2022-12-23T12:29:28.197Z,5.17
2022-12-23T12:31:02.665Z,4.70
2022-12-23T12:33:05.481Z,4.60
2022-12-23T12:35:14.874Z,4.17
2022-12-23T12:37:20.194Z,4.30
2022-12-23T12:38:53.699Z,4.63
2022-12-23T12:40:35.947Z,4.77
2022-12-23T12:42:38.048Z,4.20
2022-12-23T12:44:32.693Z,3.80
2022-12-23T12:46:24.845Z,3.67
2022-12-23T12:48:22.371Z,4.30
2022-12-23T12:50:00.680Z,4.60
2022-12-23T12:51:42.911Z,4.17
2022-12-23T12:53:19.525Z,3.63
2022-12-23T12:55:05.839Z,3.90
2022-12-23T12:56:57.100Z,4.03
2022-12-23T12:58:28.932Z,3.47
2022-12-23T13:00:05.922Z,3.17
2022-12-23T13:01:48.859Z,3.30
2022-12-23T13:03:33.197Z,3.37
2022-12-23T13:05:17.056Z,3.13
2022-12-23T13:07:08.529Z,2.97
2022-12-23T13:09:22.741Z,3.10
2022-12-23T13:11:24.795Z,2.90
2022-12-23T13:13:13.919Z,2.93
2022-12-23T13:15:04.282Z,3.27
2022-12-23T13:17:01.209Z,3.07
2022-12-23T13:19:20.352Z,3.17
2022-12-23T13:21:04.749Z,2.80
2022-12-23T13:22:38.413Z,3.20
2022-12-23T13:24:54.503Z,2.93
2022-12-23T13:26:41.554Z,3.20
2022-12-23T13:29:01.339Z,3.13
2022-12-23T13:30:42.797Z,2.63
2022-12-23T13:32:40.235Z,3.60
2022-12-23T13:34:47.110Z,3.83
2022-12-23T13:37:02.126Z,3.40
2022-12-23T13:38:54.605Z,3.63
2022-12-23T13:40:37.353Z,3.67
2022-12-23T13:42:15.517Z,4.40
2022-12-23T13:44:07.800Z,3.70
2022-12-23T13:45:41.470Z,3.40
2022-12-23T13:47:24.202Z,3.90
2022-12-23T13:49:19.786Z,4.07
2022-12-23T13:51:13.906Z,3.83
2022-12-23T13:53:10.247Z,4.10
2022-12-23T13:55:15.631Z,3.87
2022-12-23T13:57:00.867Z,3.63
2022-12-23T13:58:33.418Z,3.53
2022-12-23T14:00:17.206Z,3.40
2022-12-23T14:01:52.227Z,3.20
2022-12-23T14:03:32.513Z,3.17
2022-12-23T14:05:16.356Z,3.10
2022-12-23T14:06:48.467Z,3.00
2022-12-23T14:08:20.237Z,3.47
2022-12-23T14:09:58.156Z,2.77
2022-12-23T14:11:31.949Z,2.70
2022-12-23T14:13:08.739Z,2.73
2022-12-23T14:15:04.038Z,3.10
2022-12-23T14:17:00.307Z,2.47
2022-12-23T14:18:37.848Z,2.20
2022-12-23T14:20:21.103Z,2.43
2022-12-23T14:22:29.487Z,2.70
2022-12-23T14:24:28.925Z,2.70
2022-12-23T14:26:10.105Z,2.70
2022-12-23T14:28:00.416Z,2.73
2022-12-23T14:30:01.410Z,3.03
2022-12-23T14:31:46.206Z,2.50
2022-12-23T14:33:30.149Z,2.77
2022-12-23T14:35:04.576Z,2.50
2022-12-23T14:36:36.405Z,3.00
2022-12-23T14:38:10.592Z,2.90
2022-12-23T14:39:42.888Z,3.40
2022-12-23T14:41:36.800Z,3.03
2022-12-23T14:43:25.770Z,2.60
2022-12-23T14:45:36.275Z,3.33
2022-12-23T14:47:32.111Z,2.60
2022-12-23T14:49:36.945Z,3.20
2022-12-23T14:51:01.653Z,2.80
2022-12-23T14:52:44.448Z,3.00
2022-12-23T14:54:37.089Z,3.63
2022-12-23T14:56:14.523Z,3.90
2022-12-23T14:57:47.233Z,3.87
2022-12-23T14:59:46.593Z,3.60
2022-12-23T15:01:37.048Z,3.67
2022-12-23T15:03:11.460Z,4.20
2022-12-23T15:04:49.048Z,4.00
2022-12-23T15:06:35.910Z,3.50
2022-12-23T15:08:30.185Z,3.30
2022-12-23T15:10:22.861Z,3.50
2022-12-23T15:11:57.366Z,3.37
2022-12-23T15:13:30.886Z,3.13
2022-12-23T15:15:19.118Z,2.87
2022-12-23T15:16:50.823Z,2.50
2022-12-23T15:18:24.001Z,2.80
2022-12-23T15:20:19.996Z,2.20
2022-12-23T15:22:15.278Z,2.27
2022-12-23T15:23:52.703Z,2.40
2022-12-23T15:25:38.258Z,2.63
2022-12-23T15:27:27.355Z,2.70
2022-12-23T15:29:00.483Z,2.90
2022-12-23T15:30:46.067Z,3.30
2022-12-23T15:32:20.802Z,3.00
2022-12-23T15:34:14.863Z,3.00
2022-12-23T15:35:45.835Z,3.03
2022-12-23T15:37:24.626Z,3.17
2022-12-23T15:38:57.914Z,3.10
2022-12-23T15:40:31.334Z,3.53
2022-12-23T15:42:03.384Z,3.87
2022-12-23T15:43:41.976Z,3.00
2022-12-23T15:45:34.296Z,2.70
2022-12-23T15:47:24.241Z,3.23
2022-12-23T15:48:56.565Z,2.40
2022-12-23T15:50:29.222Z,3.83
2022-12-23T15:52:10.996Z,2.80
2022-12-23T15:53:47.459Z,3.00
2022-12-23T15:55:32.337Z,2.87
2022-12-23T15:57:04.718Z,2.50
2022-12-23T15:58:40.179Z,2.73
2022-12-23T16:00:24.026Z,3.10
2022-12-23T16:01:55.972Z,2.90
2022-12-23T16:03:37.374Z,2.73
2022-12-23T16:05:09.276Z,2.90
2022-12-23T16:06:41.669Z,2.70
2022-12-23T16:08:29.760Z,2.40
2022-12-23T16:10:14.228Z,2.93
2022-12-23T16:11:54.860Z,3.10
2022-12-23T16:13:27.181Z,2.20
2022-12-23T16:15:02.879Z,2.63
2022-12-23T16:16:42.116Z,2.87
2022-12-23T16:18:19.503Z,2.60
2022-12-23T16:19:53.623Z,2.30
2022-12-23T16:21:30.056Z,2.97
2022-12-23T16:23:02.931Z,2.63
2022-12-23T16:24:34.844Z,2.40
2022-12-23T16:26:11.399Z,2.10
2022-12-23T16:28:03.414Z,2.10
2022-12-23T16:29:35.068Z,2.20
2022-12-23T16:31:08.088Z,2.63
2022-12-23T16:32:50.471Z,2.27
2022-12-23T16:34:22.174Z,2.73
2022-12-23T16:35:55.619Z,2.70
2022-12-23T16:37:27.321Z,2.40
2022-12-23T16:39:00.995Z,2.30
2022-12-23T16:40:32.701Z,2.37
2022-12-23T16:42:04.673Z,2.10
2022-12-23T16:43:36.316Z,2.80
2022-12-23T16:45:12.886Z,3.03
2022-12-23T16:46:49.729Z,2.73
2022-12-23T16:48:39.096Z,5.10
2022-12-23T16:50:14.656Z,5.93
2022-12-23T16:51:46.735Z,6.13
2022-12-23T16:53:18.473Z,4.00
2022-12-23T16:54:50.062Z,3.97
2022-12-23T16:56:34.484Z,5.10
2022-12-23T16:58:06.420Z,3.77
2022-12-23T16:59:40.851Z,3.37
2022-12-23T17:01:26.543Z,4.20
2022-12-23T17:02:58.385Z,4.30
2022-12-23T17:04:30.033Z,4.80
2022-12-23T17:06:01.672Z,4.00
2022-12-23T17:07:33.435Z,3.30
2022-12-23T17:09:07.763Z,3.30
2022-12-23T17:10:40.887Z,2.53
2022-12-23T17:12:13.393Z,3.17
2022-12-23T17:13:45.527Z,2.80
2022-12-23T17:15:21.993Z,3.07
2022-12-23T17:16:53.744Z,3.00
2022-12-23T17:18:25.441Z,2.90
2022-12-23T17:19:57.584Z,3.03
2022-12-23T17:21:32.292Z,3.13
2022-12-23T17:23:04.100Z,3.47
2022-12-23T17:24:35.878Z,2.90
2022-12-23T17:26:07.520Z,4.50
2022-12-23T17:27:40.096Z,4.07
2022-12-23T17:29:12.646Z,3.10
2022-12-23T17:30:44.265Z,4.80
2022-12-23T17:32:17.923Z,4.20
2022-12-23T17:33:49.781Z,4.73
2022-12-23T17:35:22.286Z,3.73
2022-12-23T17:36:54.129Z,3.60
2022-12-23T17:38:29.346Z,3.93
2022-12-23T17:40:01.030Z,5.93
2022-12-23T17:41:33.395Z,6.60
2022-12-23T17:43:05.062Z,4.37
2022-12-23T17:44:36.687Z,5.83
2022-12-23T17:46:14.293Z,3.50
2022-12-23T17:47:46.114Z,4.17
2022-12-23T17:49:17.846Z,4.50
2022-12-23T17:50:49.868Z,4.00
2022-12-23T17:52:23.483Z,3.50
2022-12-23T17:53:58.135Z,3.80
2022-12-23T17:55:30.207Z,4.47
2022-12-23T17:57:02.063Z,3.80
2022-12-23T17:58:33.677Z,3.90
2022-12-23T18:00:05.822Z,5.40
2022-12-23T18:01:43.554Z,4.70
2022-12-23T18:03:23.762Z,4.70
2022-12-23T18:04:55.420Z,4.33
2022-12-23T18:06:28.806Z,3.73
2022-12-23T18:08:02.312Z,4.17
2022-12-23T18:09:33.950Z,5.80
2022-12-23T18:11:06.801Z,4.53
2022-12-23T18:12:40.837Z,4.13
2022-12-23T18:14:27.660Z,4.53
2022-12-23T18:15:59.314Z,4.00
2022-12-23T18:17:31.489Z,4.50
2022-12-23T18:19:03.263Z,4.20
2022-12-23T18:20:34.977Z,5.50
2022-12-23T18:22:06.735Z,4.13
2022-12-23T18:23:38.851Z,3.97
2022-12-23T18:25:15.770Z,3.70
2022-12-23T18:26:47.565Z,4.00
2022-12-23T18:28:19.314Z,5.63
2022-12-23T18:29:51.415Z,4.80
2022-12-23T18:31:25.540Z,5.70
2022-12-23T18:32:57.311Z,4.20
2022-12-23T18:34:28.924Z,4.50
2022-12-23T18:36:00.644Z,4.53
2022-12-23T18:37:32.277Z,5.10
2022-12-23T18:39:03.891Z,4.70
2022-12-23T18:40:35.942Z,5.67
2022-12-23T18:42:12.412Z,6.10
2022-12-23T18:43:44.046Z,5.63
2022-12-23T18:45:36.889Z,5.53
2022-12-23T18:47:09.131Z,5.13
2022-12-23T18:48:42.072Z,5.00
2022-12-23T18:50:13.867Z,4.90
2022-12-23T18:51:46.019Z,4.03
2022-12-23T18:53:24.695Z,5.13
2022-12-23T18:54:56.844Z,6.90
2022-12-23T18:56:28.503Z,5.00
2022-12-23T18:58:01.023Z,5.37
2022-12-23T18:59:34.119Z,4.83
2022-12-23T19:01:05.930Z,6.20
2022-12-23T19:02:40.106Z,4.13
2022-12-23T19:04:12.000Z,5.00
2022-12-23T19:05:49.887Z,4.97
2022-12-23T19:07:21.750Z,5.33
2022-12-23T19:08:54.468Z,5.40
2022-12-23T19:10:30.496Z,5.17
2022-12-23T19:12:05.647Z,4.77
2022-12-23T19:13:40.944Z,4.80
2022-12-23T19:15:15.750Z,5.47
2022-12-23T19:16:51.902Z,5.70
2022-12-23T19:18:24.397Z,5.67
2022-12-23T19:19:56.244Z,6.00
2022-12-23T19:21:28.090Z,4.87
2022-12-23T19:22:59.789Z,5.70
2022-12-23T19:24:31.819Z,6.03
2022-12-23T19:26:05.716Z,5.20
2022-12-23T19:27:39.316Z,4.83
2022-12-23T19:29:10.974Z,4.47
2022-12-23T19:30:42.754Z,5.07
2022-12-23T19:32:14.487Z,5.90
2022-12-23T19:33:46.948Z,5.47
2022-12-23T19:35:18.779Z,5.73
2022-12-23T19:36:50.520Z,5.53
2022-12-23T19:38:22.270Z,4.97
2022-12-23T19:39:53.984Z,4.97
2022-12-23T19:41:25.754Z,5.53
2022-12-23T19:42:57.585Z,4.77
2022-12-23T19:44:29.236Z,4.47
2022-12-23T19:46:03.314Z,5.73
2022-12-23T19:47:35.014Z,4.63
2022-12-23T19:49:06.675Z,4.93
2022-12-23T19:50:40.526Z,5.27
2022-12-23T19:52:13.743Z,5.90
2022-12-23T19:53:46.091Z,7.33
2022-12-23T19:55:18.951Z,6.00
2022-12-23T19:56:51.516Z,6.03
2022-12-23T19:58:23.313Z,5.17
2022-12-23T19:59:55.040Z,5.47
2022-12-23T20:01:27.407Z,4.87
2022-12-23T20:02:59.523Z,4.53
2022-12-23T20:04:31.911Z,4.93
2022-12-23T20:06:05.238Z,5.00
2022-12-23T20:07:37.467Z,4.30
2022-12-23T20:09:12.076Z,4.47
2022-12-23T20:10:44.102Z,4.80
2022-12-23T20:12:15.865Z,3.83
2022-12-23T20:13:51.547Z,3.90
2022-12-23T20:15:23.328Z,5.40
2022-12-23T20:16:54.985Z,4.30
2022-12-23T20:18:26.711Z,4.80
2022-12-23T20:19:58.346Z,4.60
2022-12-23T20:21:30.039Z,4.43
2022-12-23T20:23:01.773Z,4.20
2022-12-23T20:24:34.666Z,4.10
2022-12-23T20:26:06.560Z,5.43
2022-12-23T20:27:38.665Z,5.93
2022-12-23T20:29:10.428Z,5.10
2022-12-23T20:30:42.385Z,5.07
2022-12-23T20:32:14.035Z,4.10
2022-12-23T20:33:48.396Z,5.00
2022-12-23T20:35:20.059Z,4.23
2022-12-23T20:36:51.674Z,4.50
2022-12-23T20:38:23.431Z,4.90
2022-12-23T20:39:55.055Z,4.60
2022-12-23T20:41:28.387Z,5.50
2022-12-23T20:43:00.056Z,5.23
2022-12-23T20:44:35.129Z,5.63
2022-12-23T20:46:10.401Z,4.47
2022-12-23T20:47:42.048Z,4.40
2022-12-23T20:49:13.628Z,4.97
2022-12-23T20:50:45.279Z,4.43
2022-12-23T20:52:17.525Z,4.30
2022-12-23T20:53:50.766Z,4.70
2022-12-23T20:55:22.411Z,5.50
2022-12-23T20:56:54.037Z,4.23
2022-12-23T20:58:44.434Z,5.10
2022-12-23T21:00:16.452Z,5.83
2022-12-23T21:01:48.159Z,5.00
2022-12-23T21:03:19.896Z,5.30
2022-12-23T21:04:51.673Z,6.50
2022-12-23T21:06:24.327Z,4.57
2022-12-23T21:07:55.985Z,5.27
2022-12-23T21:09:27.610Z,4.10
2022-12-23T21:10:59.292Z,5.33
2022-12-23T21:12:30.956Z,5.37
2022-12-23T21:14:06.844Z,6.77
2022-12-23T21:15:39.122Z,5.80
2022-12-23T21:17:10.790Z,5.03
2022-12-23T21:18:44.725Z,5.00
2022-12-23T21:20:16.472Z,5.40
2022-12-23T21:21:48.912Z,6.67
2022-12-23T21:23:20.612Z,6.33
2022-12-23T21:24:52.205Z,11.63
2022-12-23T21:26:26.112Z,8.47
2022-12-23T21:28:00.758Z,8.87
2022-12-23T21:29:32.514Z,9.63
2022-12-23T21:31:06.316Z,8.60
2022-12-23T21:32:46.658Z,7.10
2022-12-23T21:34:18.732Z,7.90
2022-12-23T21:35:50.441Z,7.60
2022-12-23T21:37:22.124Z,8.40
2022-12-23T21:38:53.827Z,8.23
2022-12-23T21:40:25.518Z,7.30